Time;durP1;ratioP1;P1;durP2;ratioP2;P2;SDS_P1;SDS_P2;PMS_P1;PMS_P2;Temp;Humidity;BMP_temperature;BMP_pressure;BME280_temperature;BME280_humidity;BME280_pressure;Samples;Min_cycle;Max_cycle;Signal;HPM_P1;HPM_P2
2023/12/05 00:01:38;;;;;;;2.72;2.20;;;;;;;-1.15;61.73;96014.34;6250904;28;20040;-71
2023/12/05 00:04:42;;;;;;;2.80;1.88;;;;;;;-1.22;61.91;95982.75;6271709;28;20486;-70
2023/12/05 00:07:44;;;;;;;1.52;1.35;;;;;;;-1.05;60.66;96014.88;6271074;28;20052;-71
2023/12/05 00:10:45;;;;;;;3.47;2.40;;;;;;;-1.10;61.10;96012.47;6270960;28;20051;-71
2023/12/05 00:13:49;;;;;;;2.35;1.98;;;;;;;-1.03;59.78;95997.59;6268929;28;20422;-71
2023/12/05 00:16:53;;;;;;;2.15;1.40;;;;;;;-0.88;58.58;95991.06;6269355;28;20040;-70
2023/12/05 00:20:04;;;;;;;2.20;1.70;;;;;;;-1.05;59.97;95994.22;6269702;28;20040;-71
2023/12/05 00:23:08;;;;;;;2.13;1.45;;;;;;;-1.16;59.70;95994.56;6270789;28;20037;-71
2023/12/05 00:26:12;;;;;;;2.10;1.85;;;;;;;-1.24;60.57;95968.19;6270776;28;20052;-70
2023/12/05 00:29:15;;;;;;;3.08;2.00;;;;;;;-1.36;61.21;95972.00;6253005;28;20038;-70
2023/12/05 00:32:20;;;;;;;2.42;1.83;;;;;;;-1.27;60.91;95986.38;6245273;28;20513;-71
2023/12/05 00:35:28;;;;;;;1.98;1.63;;;;;;;-1.38;61.00;95992.69;6245913;28;20335;-70
2023/12/05 00:38:33;;;;;;;1.63;1.45;;;;;;;-1.40;60.90;95999.63;6244200;28;20613;-70
2023/12/05 00:41:40;;;;;;;4.50;1.85;;;;;;;-1.29;60.78;96004.47;6245754;28;20041;-70
2023/12/05 00:44:41;;;;;;;2.40;1.80;;;;;;;-1.48;60.50;95996.44;6244988;28;20049;-70
2023/12/05 00:47:42;;;;;;;2.55;1.90;;;;;;;-1.51;60.61;96006.88;6245031;28;20045;-70
2023/12/05 00:50:50;;;;;;;3.97;1.80;;;;;;;-1.58;60.66;96020.88;6245381;28;20053;-71
2023/12/05 00:53:52;;;;;;;2.90;1.95;;;;;;;-1.74;61.21;96020.47;6245171;28;20268;-71
2023/12/05 00:56:54;;;;;;;2.38;1.65;;;;;;;-1.76;61.18;96036.88;6244332;28;20049;-71
2023/12/05 00:59:58;;;;;;;2.30;1.63;;;;;;;-1.87;61.98;96014.88;6245217;28;20558;-71
2023/12/05 01:03:06;;;;;;;2.83;2.03;;;;;;;-1.95;61.22;96016.81;6245373;28;20171;-70
2023/12/05 01:06:13;;;;;;;2.15;1.70;;;;;;;-2.08;61.75;96016.31;6245210;28;20045;-70
2023/12/05 01:09:16;;;;;;;;;;;;;;;-2.06;61.34;96008.56;6244944;28;20049;-70
2023/12/05 01:12:20;;;;;;;2.42;1.98;;;;;;;-2.32;62.25;96017.88;6243838;28;19960;-70
2023/12/05 01:15:21;;;;;;;2.20;2.00;;;;;;;-2.44;63.02;96025.09;6244423;28;20127;-70
2023/12/05 01:18:28;;;;;;;2.28;1.80;;;;;;;-2.45;62.52;96028.56;6245665;28;20630;-72
2023/12/05 01:21:32;;;;;;;1.95;1.80;;;;;;;-2.56;62.38;96023.69;6245129;28;20045;-70
2023/12/05 01:24:36;;;;;;;1.90;1.80;;;;;;;-2.67;63.20;96038.59;6227395;28;20523;-72
2023/12/05 01:27:38;;;;;;;2.80;2.15;;;;;;;-2.72;62.86;96044.72;6244752;28;20588;-70
2023/12/05 01:30:41;;;;;;;2.10;1.88;;;;;;;-2.83;62.83;96054.44;6244651;28;20037;-71
2023/12/05 01:33:46;;;;;;;2.67;2.03;;;;;;;-2.83;62.33;96041.56;6244650;28;20050;-70
2023/12/05 01:36:48;;;;;;;2.58;2.38;;;;;;;-2.86;62.21;96061.38;6243778;28;20415;-70
2023/12/05 01:39:53;;;;;;;;;;;;;;;-2.72;61.54;96080.75;6245360;28;20049;-70
2023/12/05 01:42:57;;;;;;;1.58;1.48;;;;;;;-2.96;62.04;96083.94;6227296;28;19921;-71
2023/12/05 01:45:59;;;;;;;2.75;2.40;;;;;;;-2.90;61.71;96090.66;6226122;28;20045;-70
2023/12/05 01:49:05;;;;;;;2.22;2.03;;;;;;;-3.00;61.71;96095.16;6244405;28;20527;-71
2023/12/05 01:52:07;;;;;;;;;;;;;;;-2.96;61.49;96084.78;6226914;28;20057;-70
2023/12/05 01:55:12;;;;;;;2.72;2.22;;;;;;;-2.99;61.07;96086.59;6243435;28;19920;-71
2023/12/05 01:58:21;;;;;;;3.80;2.42;;;;;;;-3.33;62.17;96081.41;6244601;28;20531;-70
2023/12/05 02:01:25;;;;;;;2.50;2.30;;;;;;;-3.25;62.41;96098.34;6244242;28;20041;-71
2023/12/05 02:04:28;;;;;;;3.10;2.50;;;;;;;-3.26;61.98;96103.50;6244061;28;20050;-70
2023/12/05 02:07:34;;;;;;;2.47;2.10;;;;;;;-3.35;62.19;96108.88;6243535;28;20045;-70
2023/12/05 02:10:39;;;;;;;4.05;2.50;;;;;;;-3.43;62.53;96107.31;6243783;28;20156;-70
2023/12/05 02:13:43;;;;;;;3.33;2.70;;;;;;;-3.23;61.78;96103.44;6247352;28;20056;-70
2023/12/05 02:16:53;;;;;;;2.53;2.20;;;;;;;-3.16;61.23;96100.69;6232332;28;20049;-70
2023/12/05 02:20:40;;;;;;;2.42;2.05;;;;;;;-3.28;61.92;96105.28;6248202;28;20049;-70
2023/12/05 02:24:08;;;;;;;3.65;2.60;;;;;;;-3.40;61.50;96101.25;6203724;28;20435;-70
2023/12/05 02:27:15;;;;;;;2.80;1.73;;;;;;;-3.37;62.12;96108.88;6248743;28;20037;-71
2023/12/05 02:30:19;;;;;;;2.28;1.95;;;;;;;-3.27;61.95;96117.25;6248586;28;20041;-70
2023/12/05 02:33:26;;;;;;;2.78;2.53;;;;;;;-3.40;62.12;96112.41;6248317;28;20057;-72
2023/12/05 02:36:39;;;;;;;4.20;2.80;;;;;;;-3.44;62.00;96112.50;6248029;28;20107;-70
2023/12/05 02:39:50;;;;;;;3.97;3.08;;;;;;;-3.42;61.82;96123.59;6248545;28;20053;-71
2023/12/05 02:43:01;;;;;;;3.72;2.80;;;;;;;-3.49;61.53;96127.19;6248116;28;20422;-71
2023/12/05 02:46:09;;;;;;;3.00;2.70;;;;;;;-3.49;61.61;96117.72;6248063;28;20045;-70
2023/12/05 02:49:11;;;;;;;2.78;2.42;;;;;;;-3.55;61.50;96117.03;6230105;28;20050;-71
2023/12/05 02:52:15;;;;;;;2.60;2.40;;;;;;;-3.56;61.71;96107.63;6247771;28;20053;-70
2023/12/05 02:55:20;;;;;;;2.78;2.22;;;;;;;-3.56;62.14;96105.06;6271832;28;20052;-70
2023/12/05 02:58:25;;;;;;;2.80;2.30;;;;;;;-3.72;62.38;96110.50;6272199;28;20049;-71
2023/12/05 03:01:32;;;;;;;3.13;2.70;;;;;;;-3.96;63.18;96111.00;6271782;28;20140;-71
2023/12/05 03:04:34;;;;;;;4.95;2.60;;;;;;;-3.91;63.08;96093.78;6254624;28;20052;-71
2023/12/05 03:07:39;;;;;;;5.32;3.25;;;;;;;-3.88;63.30;96098.84;6271531;28;20080;-70
2023/12/05 03:10:43;;;;;;;3.60;2.90;;;;;;;-3.95;63.58;96097.31;6272345;28;20072;-71
2023/12/05 03:13:45;;;;;;;4.35;2.75;;;;;;;-3.84;62.97;96115.91;6271738;28;20045;-70
2023/12/05 03:16:46;;;;;;;3.03;2.53;;;;;;;-3.80;62.83;96117.53;6271430;28;20080;-71
2023/12/05 03:19:49;;;;;;;4.78;2.83;;;;;;;-3.92;63.30;96113.50;6271997;28;20061;-72
2023/12/05 03:22:52;;;;;;;2.95;2.60;;;;;;;-3.93;63.25;96105.84;6272385;28;20040;-71
2023/12/05 03:25:57;;;;;;;2.60;2.40;;;;;;;-3.88;63.43;96116.84;6272252;28;20045;-71
2023/12/05 03:28:58;;;;;;;3.78;3.10;;;;;;;-3.96;63.18;96100.72;6270783;28;20135;-70
2023/12/05 03:32:01;;;;;;;3.80;3.13;;;;;;;-4.01;63.75;96102.56;6270884;28;20056;-71
2023/12/05 03:35:05;;;;;;;5.38;3.85;;;;;;;-4.06;64.19;96126.63;6271101;28;20167;-71
2023/12/05 03:38:09;;;;;;;5.25;3.75;;;;;;;-4.08;64.18;96138.66;6271716;28;20040;-70
2023/12/05 03:41:11;;;;;;;4.95;4.00;;;;;;;-4.18;64.59;96144.84;6269956;28;20510;-70
2023/12/05 03:44:15;;;;;;;6.30;4.28;;;;;;;-4.27;64.94;96142.44;6271633;28;20041;-70
2023/12/05 03:47:16;;;;;;;8.50;5.63;;;;;;;-4.40;65.43;96135.84;6270747;28;20426;-71
2023/12/05 03:50:20;;;;;;;;;;;;;;;-4.21;64.95;96160.31;6271793;28;20098;-70
2023/12/05 03:53:26;;;;;;;5.82;4.55;;;;;;;-4.34;65.12;96156.25;6254162;28;19921;-70
2023/12/05 03:56:31;;;;;;;6.13;4.40;;;;;;;-4.23;65.37;96164.63;6270620;28;20048;-70
2023/12/05 03:59:33;;;;;;;8.65;4.82;;;;;;;-4.06;65.11;96164.31;6270323;28;20068;-71
2023/12/05 04:02:39;;;;;;;7.50;5.18;;;;;;;-3.96;64.46;96159.84;6270222;28;20057;-71
2023/12/05 04:05:43;;;;;;;8.13;5.20;;;;;;;-4.09;64.34;96152.38;6270129;28;20092;-70
2023/12/05 04:08:51;;;;;;;8.10;5.18;;;;;;;-4.02;64.64;96183.09;6271144;28;20037;-70
2023/12/05 04:11:54;;;;;;;6.05;4.00;;;;;;;-3.84;63.62;96182.75;6269461;28;20537;-71
2023/12/05 04:14:58;;;;;;;7.22;5.07;;;;;;;-3.79;63.57;96195.50;6269343;28;20056;-71
2023/12/05 04:18:02;;;;;;;7.82;4.60;;;;;;;-3.76;63.77;96195.47;6269975;28;20423;-70
2023/12/05 04:21:05;;;;;;;8.45;5.35;;;;;;;-3.74;63.24;96199.66;6270390;28;20053;-70
2023/12/05 04:24:06;;;;;;;6.05;4.45;;;;;;;-3.80;63.05;96204.94;6269346;28;20061;-70
2023/12/05 04:27:11;;;;;;;9.63;5.57;;;;;;;-3.90;62.70;96203.44;6270329;28;20041;-70
2023/12/05 04:30:15;;;;;;;11.20;5.82;;;;;;;-3.99;62.67;96203.56;6270440;28;20040;-70
2023/12/05 04:33:19;;;;;;;7.00;4.75;;;;;;;-4.00;62.31;96222.44;6268014;28;20067;-70
2023/12/05 04:36:24;;;;;;;10.15;6.18;;;;;;;-3.97;62.26;96217.25;6269259;28;20053;-70
2023/12/05 04:39:28;;;;;;;5.63;4.07;;;;;;;-4.11;62.86;96231.19;6270058;28;20060;-70
2023/12/05 04:42:33;;;;;;;5.80;3.83;;;;;;;-3.92;62.16;96233.44;6270302;28;20426;-70
2023/12/05 04:45:40;;;;;;;9.05;5.25;;;;;;;-4.02;62.53;96219.91;6269920;28;20048;-69
2023/12/05 04:48:44;;;;;;;8.45;5.63;;;;;;;-3.96;62.83;96240.38;6269712;28;20041;-70
2023/12/05 04:51:46;;;;;;;7.82;4.50;;;;;;;-3.96;62.63;96254.91;6269121;28;20048;-71
2023/12/05 04:54:51;;;;;;;5.97;4.60;;;;;;;-3.88;62.34;96258.19;6248499;28;20140;-70
2023/12/05 04:57:55;;;;;;;4.93;3.85;;;;;;;-3.81;62.36;96271.81;6244938;28;20050;-71
2023/12/05 05:01:00;;;;;;;8.98;5.57;;;;;;;-3.72;61.58;96259.63;6244731;28;20050;-70
2023/12/05 05:04:04;;;;;;;6.70;4.45;;;;;;;-3.72;61.42;96279.34;6245316;28;20045;-71
2023/12/05 05:07:08;;;;;;;7.07;5.05;;;;;;;-3.70;62.16;96288.72;6245267;28;20041;-71
2023/12/05 05:10:11;;;;;;;8.13;5.28;;;;;;;-3.68;61.67;96286.13;6244277;28;20046;-70
2023/12/05 05:13:16;;;;;;;7.93;5.38;;;;;;;-3.69;61.72;96264.69;6243962;28;20071;-70
2023/12/05 05:16:23;;;;;;;6.47;4.97;;;;;;;-3.62;61.31;96256.00;6244909;28;20045;-70
2023/12/05 05:19:27;;;;;;;7.75;5.13;;;;;;;-3.52;61.06;96261.81;6244169;28;20060;-71
2023/12/05 05:22:30;;;;;;;6.22;4.57;;;;;;;-3.59;60.78;96231.09;6243744;28;20434;-70
2023/12/05 05:25:35;;;;;;;7.78;5.07;;;;;;;-3.34;60.01;96263.19;6244698;28;20041;-70
2023/12/05 05:28:41;;;;;;;7.05;4.72;;;;;;;-3.24;59.54;96277.53;6244449;28;20129;-70
2023/12/05 05:31:46;;;;;;;7.53;5.47;;;;;;;-3.22;59.41;96250.06;6243919;28;20057;-70
2023/12/05 05:34:50;;;;;;;6.72;4.50;;;;;;;-3.07;59.41;96242.91;6244510;28;20055;-70
2023/12/05 05:37:53;;;;;;;7.38;4.63;;;;;;;-3.10;59.30;96212.09;6244246;28;20041;-70
2023/12/05 05:41:05;;;;;;;6.93;4.40;;;;;;;-2.64;58.68;96236.78;6243631;28;20053;-71
2023/12/05 05:44:10;;;;;;;7.35;4.68;;;;;;;-2.51;58.02;96244.22;6244480;28;20045;-70
2023/12/05 05:47:12;;;;;;;9.85;5.28;;;;;;;-2.37;58.18;96241.31;6245980;28;20570;-71
2023/12/05 05:50:16;;;;;;;7.22;4.90;;;;;;;-2.19;56.29;96245.16;6249758;28;20514;-72
2023/12/05 05:53:20;;;;;;;7.72;4.85;;;;;;;-2.27;57.10;96265.94;6249364;28;20049;-71
2023/12/05 05:56:24;;;;;;;8.15;5.07;;;;;;;-2.13;57.65;96264.78;6249505;28;20444;-71
2023/12/05 05:59:31;;;;;;;8.60;5.10;;;;;;;-1.84;57.15;96277.78;6248074;28;20060;-71
2023/12/05 06:02:38;;;;;;;8.95;5.32;;;;;;;-1.61;56.78;96273.78;6249347;28;20037;-71
2023/12/05 06:05:44;;;;;;;9.00;5.13;;;;;;;-1.37;56.76;96277.41;6249133;28;20140;-71
2023/12/05 06:08:48;;;;;;;10.10;5.72;;;;;;;-1.14;55.77;96264.69;6248523;28;20049;-71
2023/12/05 06:11:50;;;;;;;9.18;6.55;;;;;;;-0.99;55.87;96276.34;6231143;28;20045;-70
2023/12/05 06:14:51;;;;;;;11.55;6.03;;;;;;;-0.91;55.92;96284.72;6248742;28;20171;-71
2023/12/05 06:17:58;;;;;;;7.68;5.05;;;;;;;-0.72;55.43;96284.16;6248266;28;20061;-70
2023/12/05 06:21:02;;;;;;;9.50;5.30;;;;;;;-0.66;54.51;96276.22;6249123;28;20045;-71
2023/12/05 06:24:04;;;;;;;13.55;8.73;;;;;;;-0.56;54.72;96269.91;6247713;28;20426;-72
2023/12/05 06:27:06;;;;;;;10.05;5.85;;;;;;;-0.33;54.26;96273.50;6247611;28;20053;-71
2023/12/05 06:30:08;;;;;;;9.55;6.47;;;;;;;-0.22;53.83;96276.59;6247900;28;20628;-71
2023/12/05 06:33:10;;;;;;;8.88;6.30;;;;;;;-0.15;53.86;96282.41;6248029;28;20207;-70
2023/12/05 06:36:13;;;;;;;10.57;6.38;;;;;;;-0.07;54.07;96296.78;6248281;28;20471;-70
2023/12/05 06:39:17;;;;;;;11.38;7.07;;;;;;;0.05;53.54;96305.03;6248652;28;20072;-71
2023/12/05 06:42:22;;;;;;;11.23;7.10;;;;;;;0.07;52.86;96298.09;6247831;28;20049;-72
2023/12/05 06:45:24;;;;;;;10.95;6.18;;;;;;;0.08;52.92;96298.00;6230587;28;20060;-71
2023/12/05 06:48:31;;;;;;;8.88;5.50;;;;;;;0.05;52.42;96299.88;6248313;28;20045;-72
2023/12/05 06:51:38;;;;;;;8.38;5.57;;;;;;;0.08;52.77;96299.75;6248108;28;20514;-71
2023/12/05 06:54:41;;;;;;;8.60;5.05;;;;;;;0.20;52.56;96296.78;6246929;28;20050;-71
2023/12/05 06:57:43;;;;;;;8.10;5.20;;;;;;;0.24;51.40;96285.44;6247089;28;20144;-71
2023/12/05 07:00:48;;;;;;;10.02;5.05;;;;;;;-0.04;51.21;96288.91;6247852;28;20045;-70
2023/12/05 07:03:54;;;;;;;6.35;4.75;;;;;;;-0.23;51.58;96274.88;6247613;28;20053;-73
2023/12/05 07:06:56;;;;;;;;;;;;;;;-0.11;51.31;96271.09;6247499;28;20045;-70
2023/12/05 07:09:57;;;;;;;9.70;4.40;;;;;;;-0.40;51.55;96265.06;6246822;28;19921;-70
2023/12/05 07:13:00;;;;;;;11.35;5.38;;;;;;;-0.23;51.11;96259.38;6247150;28;20057;-72
2023/12/05 07:16:04;;;;;;;14.57;7.88;;;;;;;0.25;50.90;96275.91;6247343;28;20042;-70
2023/12/05 07:19:08;;;;;;;10.93;6.30;;;;;;;0.25;50.80;96284.53;6246751;28;20140;-71
2023/12/05 07:22:09;;;;;;;7.65;4.97;;;;;;;0.09;50.73;96275.59;6246802;28;20216;-71
2023/12/05 07:25:11;;;;;;;8.20;5.68;;;;;;;-0.15;50.83;96272.06;6246193;28;20049;-69
2023/12/05 07:28:16;;;;;;;9.75;6.10;;;;;;;-0.39;51.26;96268.53;6246143;28;20050;-71
2023/12/05 07:31:21;;;;;;;11.68;6.80;;;;;;;-0.61;50.30;96274.34;6247232;28;20529;-70
2023/12/05 07:34:25;;;;;;;18.17;8.35;;;;;;;-0.92;51.20;96270.09;6245778;28;20053;-71
2023/12/05 07:37:29;;;;;;;16.75;7.78;;;;;;;-1.18;52.29;96263.09;6246134;28;20060;-71
2023/12/05 07:40:33;;;;;;;15.18;7.78;;;;;;;-1.33;52.42;96254.94;6246654;28;20053;-71
2023/12/05 07:43:34;;;;;;;11.40;5.60;;;;;;;-1.35;52.51;96260.16;6228821;28;20049;-71
2023/12/05 07:46:40;;;;;;;8.32;5.43;;;;;;;-1.30;51.82;96260.88;6246586;28;20046;-71
2023/12/05 07:49:45;;;;;;;7.10;4.50;;;;;;;-1.36;51.24;96259.31;6247371;28;20041;-71
2023/12/05 07:52:52;;;;;;;6.72;4.30;;;;;;;-1.42;51.93;96249.13;6270105;28;20059;-71
2023/12/05 07:55:54;;;;;;;6.32;4.00;;;;;;;-1.22;50.94;96245.16;6270852;28;20130;-72
2023/12/05 07:58:56;;;;;;;4.38;3.30;;;;;;;-1.14;50.27;96228.56;6270473;28;20438;-71
2023/12/05 08:02:03;;;;;;;8.63;3.90;;;;;;;-1.08;50.40;96247.34;6271279;28;20542;-70
2023/12/05 08:05:09;;;;;;;5.80;4.25;;;;;;;-1.02;50.19;96250.63;6254133;28;20406;-71
2023/12/05 08:08:14;;;;;;;7.95;4.70;;;;;;;-0.98;50.05;96259.94;6270438;28;20045;-71
2023/12/05 08:11:22;;;;;;;11.80;5.78;;;;;;;-1.04;50.05;96257.56;6270294;28;20044;-70
2023/12/05 08:14:23;;;;;;;15.98;6.93;;;;;;;-1.01;50.54;96270.38;6270504;28;20048;-71
2023/12/05 08:17:31;;;;;;;13.50;7.57;;;;;;;-1.11;50.52;96268.94;6270422;28;20090;-71
2023/12/05 08:20:39;;;;;;;9.82;6.15;;;;;;;-1.15;50.60;96277.66;6270073;28;20053;-71
2023/12/05 08:23:46;;;;;;;9.98;6.10;;;;;;;-1.07;51.34;96282.63;6270798;28;20094;-71
2023/12/05 08:26:53;;;;;;;8.70;5.43;;;;;;;-0.92;50.98;96277.00;6270635;28;20087;-71
2023/12/05 08:29:57;;;;;;;7.57;4.57;;;;;;;-0.76;50.36;96285.16;6254555;28;20120;-70
2023/12/05 08:33:05;;;;;;;6.88;3.70;;;;;;;-0.86;49.99;96284.56;6245969;28;20049;-71
2023/12/05 08:36:08;;;;;;;7.00;4.35;;;;;;;-1.04;49.34;96298.88;6245169;28;20046;-71
2023/12/05 08:39:13;;;;;;;4.53;3.50;;;;;;;-1.14;49.41;96294.84;6244847;28;20088;-72
2023/12/05 08:42:19;;;;;;;6.03;4.03;;;;;;;-1.30;50.32;96283.22;6245712;28;20052;-71
2023/12/05 08:45:22;;;;;;;9.77;4.13;;;;;;;-1.37;50.54;96278.25;6226607;28;20423;-71
2023/12/05 08:48:23;;;;;;;4.78;3.05;;;;;;;-1.18;49.98;96270.00;6244752;28;20053;-71
2023/12/05 08:51:30;;;;;;;5.78;4.53;;;;;;;-1.30;49.73;96270.34;6245498;28;20045;-71
2023/12/05 08:54:34;;;;;;;9.98;4.90;;;;;;;-1.32;50.17;96266.97;6244958;28;20053;-71
2023/12/05 08:57:38;;;;;;;8.32;4.82;;;;;;;-1.29;49.31;96254.81;6245042;28;20122;-71
2023/12/05 09:00:42;;;;;;;8.07;4.82;;;;;;;-1.33;49.35;96262.69;6245227;28;20041;-71
2023/12/05 09:03:48;;;;;;;6.68;4.40;;;;;;;-1.42;49.41;96259.47;6245308;28;20049;-71
2023/12/05 09:07:09;;;;;;;9.35;4.90;;;;;;;-1.40;49.62;96273.16;6243823;28;20072;-71
2023/12/05 09:10:13;;;;;;;5.97;3.87;;;;;;;-1.39;49.73;96256.81;6244945;28;20128;-70
2023/12/05 09:13:20;;;;;;;9.75;4.10;;;;;;;-1.45;50.11;96262.13;6244007;28;20061;-70
2023/12/05 09:16:23;;;;;;;7.30;3.70;;;;;;;-1.61;49.65;96258.28;6244307;28;20045;-72
2023/12/05 09:19:27;;;;;;;4.38;3.42;;;;;;;-1.67;49.90;96263.59;6243914;28;20419;-70
2023/12/05 09:22:31;;;;;;;4.47;3.03;;;;;;;-1.99;48.77;96242.06;6243982;28;20061;-71
2023/12/05 09:25:39;;;;;;;6.00;3.30;;;;;;;-1.99;48.68;96251.53;6244162;28;20061;-72
2023/12/05 09:28:46;;;;;;;5.10;2.65;;;;;;;-2.28;49.11;96250.53;6244436;28;20041;-70
2023/12/05 09:31:48;;;;;;;4.88;3.33;;;;;;;-2.34;49.62;96250.69;6243233;28;20048;-71
2023/12/05 09:34:55;;;;;;;5.95;3.53;;;;;;;-2.44;49.31;96221.72;6244894;28;20053;-71
2023/12/05 09:37:59;;;;;;;3.50;3.00;;;;;;;-2.19;48.69;96239.16;6244369;28;20041;-71
2023/12/05 09:41:03;;;;;;;4.32;2.95;;;;;;;-2.14;48.12;96238.16;6244509;28;20037;-71
2023/12/05 09:44:08;;;;;;;3.30;1.95;;;;;;;-2.27;48.45;96242.75;6244682;28;20045;-72
2023/12/05 09:47:20;;;;;;;3.90;2.80;;;;;;;-2.51;48.42;96230.47;6244576;28;20049;-71
2023/12/05 09:50:22;;;;;;;4.50;2.95;;;;;;;-2.83;48.94;96242.38;6243570;28;20067;-71
2023/12/05 09:53:24;;;;;;;6.15;3.35;;;;;;;-2.96;48.72;96256.41;6242861;28;20050;-73
2023/12/05 09:56:31;;;;;;;9.05;4.30;;;;;;;-3.16;48.51;96262.81;6226806;28;20120;-72
2023/12/05 09:59:33;;;;;;;5.70;3.55;;;;;;;-3.38;48.72;96253.81;6244053;28;20058;-71
2023/12/05 10:02:40;;;;;;;7.93;3.70;;;;;;;-3.53;49.73;96270.41;6244502;28;20049;-70
2023/12/05 10:05:47;;;;;;;6.57;3.78;;;;;;;-3.59;49.72;96259.38;6243685;28;20060;-71
2023/12/05 10:08:55;;;;;;;7.30;4.25;;;;;;;-3.61;49.93;96273.13;6243929;28;20382;-71
2023/12/05 10:12:01;;;;;;;7.55;3.75;;;;;;;-3.74;50.37;96276.78;6243046;28;20065;-71
2023/12/05 10:15:05;;;;;;;4.75;3.30;;;;;;;-3.82;50.83;96276.09;6244326;28;20045;-71
2023/12/05 10:18:12;;;;;;;5.97;3.80;;;;;;;-3.96;50.65;96280.63;6244446;28;20045;-71
2023/12/05 10:21:16;;;;;;;6.75;3.90;;;;;;;-4.13;50.81;96261.22;6243322;28;20400;-71
2023/12/05 10:24:24;;;;;;;10.98;4.50;;;;;;;-3.98;50.93;96282.38;6243972;28;20124;-70
2023/12/05 10:27:27;;;;;;;7.93;4.53;;;;;;;-4.12;50.85;96286.03;6243916;28;20077;-71
2023/12/05 10:30:34;;;;;;;8.40;4.25;;;;;;;-4.31;50.72;96284.63;6243617;28;20041;-71
2023/12/05 10:33:35;;;;;;;5.93;3.67;;;;;;;-4.37;51.37;96284.72;6245838;28;20052;-72
2023/12/05 10:36:38;;;;;;;6.53;4.22;;;;;;;-4.50;51.41;96268.69;6247630;28;20068;-71
2023/12/05 10:39:45;;;;;;;9.02;5.13;;;;;;;-4.51;51.56;96274.66;6247276;28;20053;-71
2023/12/05 10:42:46;;;;;;;7.65;4.78;;;;;;;-4.59;51.52;96294.47;6247579;28;20518;-71
2023/12/05 10:45:49;;;;;;;8.30;4.90;;;;;;;-4.67;51.58;96292.03;6247865;28;20538;-70
2023/12/05 10:48:50;;;;;;;6.75;3.88;;;;;;;-4.77;51.67;96291.31;6247820;28;20103;-71
2023/12/05 10:51:55;;;;;;;7.47;4.80;;;;;;;-4.87;51.80;96273.50;6248233;28;20531;-70
2023/12/05 10:54:59;;;;;;;8.30;4.82;;;;;;;-4.93;52.01;96294.09;6246614;28;20434;-71
2023/12/05 10:58:07;;;;;;;7.38;4.65;;;;;;;-5.02;51.95;96290.78;6248307;28;20049;-70
2023/12/05 11:01:17;;;;;;;10.13;5.22;;;;;;;-5.05;52.24;96295.97;6248080;28;20045;-71
2023/12/05 11:04:24;;;;;;;8.13;4.72;;;;;;;-5.14;52.54;96280.69;6247996;28;20057;-71
2023/12/05 11:07:27;;;;;;;;;;;;;;;-5.09;52.42;96272.97;6247467;28;20037;-70
2023/12/05 11:10:31;;;;;;;8.50;5.53;;;;;;;-5.06;52.68;96278.88;6247091;28;19928;-71
2023/12/05 11:13:37;;;;;;;9.73;5.38;;;;;;;-5.07;52.50;96284.03;6247868;28;20509;-71
2023/12/05 11:16:48;;;;;;;8.32;5.70;;;;;;;-5.14;52.55;96285.81;6247771;28;20042;-71
2023/12/05 11:20:10;;;;;;;9.77;5.93;;;;;;;-5.25;52.93;96292.81;6247495;28;20049;-72
2023/12/05 11:23:41;;;;;;;7.38;4.95;;;;;;;-5.29;53.33;96301.41;6247334;28;20503;-71
2023/12/05 11:27:10;;;;;;;7.88;4.68;;;;;;;-5.37;52.94;96298.09;6246683;28;20161;-70
2023/12/05 11:30:20;;;;;;;9.70;5.68;;;;;;;-5.42;53.19;96303.25;6246158;28;20046;-71
2023/12/05 11:33:51;;;;;;;8.63;5.57;;;;;;;-5.47;54.13;96297.34;6247196;28;20049;-70
2023/12/05 11:37:04;;;;;;;8.82;5.70;;;;;;;-5.46;53.64;96307.59;6250746;28;20053;-71
2023/12/05 11:40:07;;;;;;;9.40;5.70;;;;;;;-5.54;54.23;96301.69;6271136;28;20458;-72
2023/12/05 11:43:14;;;;;;;9.27;5.30;;;;;;;-5.59;54.33;96284.66;6271535;28;20134;-71
2023/12/05 11:46:23;;;;;;;11.10;6.70;;;;;;;-5.51;54.23;96311.91;6270475;28;20063;-72
2023/12/05 11:49:47;;;;;;;9.02;5.03;;;;;;;-5.55;53.92;96315.34;6271412;28;20056;-71
2023/12/05 11:52:56;;;;;;;10.77;6.53;;;;;;;-5.62;54.74;96313.75;6253935;28;20057;-70
2023/12/05 11:56:16;;;;;;;10.63;6.45;;;;;;;-5.60;55.08;96322.28;6271341;28;20036;-69
2023/12/05 11:59:23;;;;;;;10.15;6.65;;;;;;;-5.66;54.57;96306.97;6271448;28;20474;-70
2023/12/05 12:02:31;;;;;;;9.10;6.38;;;;;;;-5.60;54.75;96317.13;6270672;28;20053;-72
2023/12/05 12:05:33;;;;;;;12.05;5.97;;;;;;;-5.62;55.40;96318.88;6270173;28;20041;-72
2023/12/05 12:08:42;;;;;;;11.70;6.10;;;;;;;-5.58;54.91;96324.78;6271336;28;20044;-71
2023/12/05 12:11:47;;;;;;;9.35;5.70;;;;;;;-5.69;54.87;96324.91;6271049;28;20048;-71
2023/12/05 12:14:48;;;;;;;9.43;5.27;;;;;;;-5.69;55.23;96338.59;6269905;28;20057;-70
2023/12/05 12:17:53;;;;;;;9.82;6.43;;;;;;;-5.72;54.92;96350.56;6270657;28;20049;-72
2023/12/05 12:21:02;;;;;;;12.15;6.70;;;;;;;-5.73;54.61;96356.56;6270783;28;20448;-70
2023/12/05 12:24:23;;;;;;;9.90;5.55;;;;;;;-5.78;54.88;96350.63;6270650;28;20044;-70
2023/12/05 12:27:34;;;;;;;12.77;7.05;;;;;;;-5.84;55.27;96341.28;6269865;28;20130;-71
2023/12/05 12:30:38;;;;;;;13.25;6.45;;;;;;;-5.88;55.18;96343.03;6250169;28;20053;-71
2023/12/05 12:33:46;;;;;;;13.20;7.00;;;;;;;-5.81;54.82;96340.41;6244657;28;20056;-71
2023/12/05 12:36:52;;;;;;;15.50;6.20;;;;;;;-5.90;55.50;96349.88;6245452;28;20136;-71
2023/12/05 12:39:54;;;;;;;14.75;6.45;;;;;;;-5.94;55.29;96358.50;6244505;28;20132;-71
2023/12/05 12:42:59;;;;;;;12.73;6.95;;;;;;;-6.12;55.52;96333.03;6244793;28;20510;-71
2023/12/05 12:46:00;;;;;;;10.32;6.95;;;;;;;-6.02;55.28;96344.91;6244600;28;20136;-70
2023/12/05 12:49:08;;;;;;;14.63;7.22;;;;;;;-6.08;55.14;96344.97;6245187;28;20506;-71
2023/12/05 12:52:10;;;;;;;13.88;7.05;;;;;;;-6.07;55.38;96356.88;6244785;28;20148;-70
2023/12/05 12:55:11;;;;;;;11.20;6.10;;;;;;;-6.18;55.17;96349.28;6243986;28;20068;-71
2023/12/05 12:58:14;;;;;;;12.68;6.93;;;;;;;-6.21;55.61;96356.16;6244429;28;20045;-70
2023/12/05 13:01:17;;;;;;;12.05;7.85;;;;;;;-6.32;55.98;96354.50;6245286;28;20530;-71
2023/12/05 13:04:21;;;;;;;13.40;7.00;;;;;;;-6.37;56.49;96353.72;6245047;28;20041;-73
2023/12/05 13:07:25;;;;;;;7.65;5.40;;;;;;;-6.35;56.19;96346.00;6244349;28;20469;-71
2023/12/05 13:10:30;;;;;;;11.43;6.43;;;;;;;-6.35;56.76;96357.09;6243994;28;20192;-71
2023/12/05 13:13:32;;;;;;;11.75;6.30;;;;;;;-6.34;55.95;96363.94;6244763;28;20056;-70
2023/12/05 13:16:43;;;;;;;10.95;7.10;;;;;;;-6.33;56.44;96370.75;6244950;28;20057;-71
2023/12/05 13:19:44;;;;;;;12.80;6.03;;;;;;;-6.34;56.61;96389.53;6244143;28;20052;-72
2023/12/05 13:22:49;;;;;;;12.32;5.28;;;;;;;-6.43;56.29;96389.56;6244300;28;20051;-70
2023/12/05 13:25:53;;;;;;;9.65;5.50;;;;;;;-6.56;56.36;96382.84;6225962;28;20522;-71
2023/12/05 13:29:00;;;;;;;10.43;4.97;;;;;;;-6.81;56.18;96357.38;6244523;28;20042;-72
2023/12/05 13:32:07;;;;;;;7.55;4.82;;;;;;;-6.67;56.31;96385.44;6244602;28;20445;-70
2023/12/05 13:35:11;;;;;;;8.60;5.53;;;;;;;-6.77;56.64;96373.56;6244111;28;20053;-72
2023/12/05 13:38:16;;;;;;;7.95;4.85;;;;;;;-6.88;56.13;96371.06;6244456;28;20418;-70
2023/12/05 13:41:22;;;;;;;7.53;5.40;;;;;;;-6.99;56.93;96372.84;6244660;28;20037;-71
2023/12/05 13:44:24;;;;;;;9.32;4.72;;;;;;;-7.12;56.90;96366.91;6243779;28;20045;-70
2023/12/05 13:47:32;;;;;;;7.93;5.40;;;;;;;-7.24;57.38;96357.56;6244199;28;20041;-71
2023/12/05 13:50:37;;;;;;;9.32;5.07;;;;;;;-7.34;57.52;96363.56;6226778;28;20049;-72
2023/12/05 13:53:43;;;;;;;10.80;5.60;;;;;;;-7.52;57.11;96368.75;6243440;28;20056;-72
2023/12/05 13:56:47;;;;;;;8.57;5.43;;;;;;;-7.64;57.12;96366.19;6244128;28;20049;-71
2023/12/05 13:59:54;;;;;;;11.15;7.07;;;;;;;-7.79;57.44;96388.34;6244355;28;20042;-71
2023/12/05 14:03:02;;;;;;;16.17;8.02;;;;;;;-8.01;58.19;96371.34;6243221;28;20057;-71
2023/12/05 14:06:07;;;;;;;14.27;8.25;;;;;;;-8.08;58.16;96395.19;6226860;28;20077;-72
2023/12/05 14:09:12;;;;;;;16.45;8.98;;;;;;;-8.17;58.33;96386.69;6247282;28;20056;-71
2023/12/05 14:12:13;;;;;;;16.63;9.75;;;;;;;-8.23;58.76;96396.91;6248518;28;20049;-72
2023/12/05 14:15:15;;;;;;;12.38;6.47;;;;;;;-8.16;58.61;96393.47;6230865;28;20046;-70
2023/12/05 14:18:22;;;;;;;10.05;5.50;;;;;;;-8.02;58.83;96402.84;6248200;28;20045;-70
2023/12/05 14:21:30;;;;;;;12.52;7.70;;;;;;;-8.08;58.81;96390.09;6248781;28;20422;-71
2023/12/05 14:24:39;;;;;;;17.45;9.25;;;;;;;-8.11;58.78;96401.16;6249091;28;20045;-71
2023/12/05 14:27:43;;;;;;;14.07;7.28;;;;;;;-8.18;59.01;96400.31;6248089;28;20046;-70
2023/12/05 14:30:47;;;;;;;25.50;11.30;;;;;;;-8.21;58.95;96405.41;6248706;28;20418;-70
2023/12/05 14:33:51;;;;;;;16.90;8.88;;;;;;;-8.27;59.08;96400.28;6248630;28;20053;-71